sensor_id;sensor_type;location;lat;lon;timestamp;P1;durP1;ratioP1;P2;durP2;ratioP2
56653;SDS011;45096;52.302;4.634;2023-07-22T00:00:29;4.75;;;4.25;;
56653;SDS011;45096;52.302;4.634;2023-07-22T00:02:55;4.60;;;4.20;;
56653;SDS011;45096;52.302;4.634;2023-07-22T00:05:22;6.97;;;4.78;;
56653;SDS011;45096;52.302;4.634;2023-07-22T00:07:47;5.10;;;4.28;;
56653;SDS011;45096;52.302;4.634;2023-07-22T00:10:13;4.97;;;4.47;;
56653;SDS011;45096;52.302;4.634;2023-07-22T00:12:38;4.95;;;4.55;;
56653;SDS011;45096;52.302;4.634;2023-07-22T00:15:04;7.00;;;5.10;;
56653;SDS011;45096;52.302;4.634;2023-07-22T00:17:30;6.70;;;5.57;;
56653;SDS011;45096;52.302;4.634;2023-07-22T00:19:55;5.53;;;4.40;;
56653;SDS011;45096;52.302;4.634;2023-07-22T00:22:22;4.75;;;4.32;;
56653;SDS011;45096;52.302;4.634;2023-07-22T00:24:47;5.38;;;4.78;;
56653;SDS011;45096;52.302;4.634;2023-07-22T00:27:13;5.65;;;4.78;;
56653;SDS011;45096;52.302;4.634;2023-07-22T00:29:38;5.13;;;4.63;;
56653;SDS011;45096;52.302;4.634;2023-07-22T00:32:04;6.20;;;4.90;;
56653;SDS011;45096;52.302;4.634;2023-07-22T00:34:30;4.65;;;4.32;;
56653;SDS011;45096;52.302;4.634;2023-07-22T00:36:56;5.28;;;4.78;;
56653;SDS011;45096;52.302;4.634;2023-07-22T00:39:22;4.70;;;4.28;;
56653;SDS011;45096;52.302;4.634;2023-07-22T00:41:48;6.15;;;4.60;;
56653;SDS011;45096;52.302;4.634;2023-07-22T00:44:13;4.47;;;4.13;;
56653;SDS011;45096;52.302;4.634;2023-07-22T00:46:39;5.18;;;4.68;;
56653;SDS011;45096;52.302;4.634;2023-07-22T00:49:05;4.95;;;4.55;;
56653;SDS011;45096;52.302;4.634;2023-07-22T00:51:30;6.03;;;4.97;;
56653;SDS011;45096;52.302;4.634;2023-07-22T00:53:56;5.82;;;5.10;;
56653;SDS011;45096;52.302;4.634;2023-07-22T00:56:22;5.85;;;4.95;;
56653;SDS011;45096;52.302;4.634;2023-07-22T00:58:48;5.53;;;5.00;;
56653;SDS011;45096;52.302;4.634;2023-07-22T01:01:13;5.65;;;5.05;;
56653;SDS011;45096;52.302;4.634;2023-07-22T01:03:39;5.15;;;4.10;;
56653;SDS011;45096;52.302;4.634;2023-07-22T01:06:04;5.70;;;5.15;;
56653;SDS011;45096;52.302;4.634;2023-07-22T01:08:30;5.18;;;4.68;;
56653;SDS011;45096;52.302;4.634;2023-07-22T01:10:55;6.78;;;5.20;;
56653;SDS011;45096;52.302;4.634;2023-07-22T01:13:22;7.10;;;4.47;;
56653;SDS011;45096;52.302;4.634;2023-07-22T01:15:47;5.75;;;4.72;;
56653;SDS011;45096;52.302;4.634;2023-07-22T01:18:13;4.85;;;4.40;;
56653;SDS011;45096;52.302;4.634;2023-07-22T01:20:38;5.15;;;4.60;;
56653;SDS011;45096;52.302;4.634;2023-07-22T01:23:05;5.30;;;4.50;;
56653;SDS011;45096;52.302;4.634;2023-07-22T01:25:32;7.30;;;5.72;;
56653;SDS011;45096;52.302;4.634;2023-07-22T01:27:57;6.60;;;5.00;;
56653;SDS011;45096;52.302;4.634;2023-07-22T01:30:22;4.93;;;4.50;;
56653;SDS011;45096;52.302;4.634;2023-07-22T01:32:48;5.35;;;4.53;;
56653;SDS011;45096;52.302;4.634;2023-07-22T01:35:13;5.03;;;4.60;;
56653;SDS011;45096;52.302;4.634;2023-07-22T01:37:39;5.18;;;4.68;;
56653;SDS011;45096;52.302;4.634;2023-07-22T01:40:06;4.93;;;4.50;;
56653;SDS011;45096;52.302;4.634;2023-07-22T01:42:32;5.53;;;5.03;;
56653;SDS011;45096;52.302;4.634;2023-07-22T01:44:57;5.00;;;4.50;;
56653;SDS011;45096;52.302;4.634;2023-07-22T01:47:23;4.88;;;4.45;;
56653;SDS011;45096;52.302;4.634;2023-07-22T01:49:48;5.53;;;4.97;;
56653;SDS011;45096;52.302;4.634;2023-07-22T01:52:13;5.50;;;4.57;;
56653;SDS011;45096;52.302;4.634;2023-07-22T01:54:39;4.50;;;4.10;;
56653;SDS011;45096;52.302;4.634;2023-07-22T01:57:06;5.00;;;4.50;;
56653;SDS011;45096;52.302;4.634;2023-07-22T01:59:31;5.22;;;4.80;;
56653;SDS011;45096;52.302;4.634;2023-07-22T02:01:57;5.57;;;4.93;;
56653;SDS011;45096;52.302;4.634;2023-07-22T02:04:22;5.22;;;4.72;;
56653;SDS011;45096;52.302;4.634;2023-07-22T02:06:47;5.30;;;4.80;;
56653;SDS011;45096;52.302;4.634;2023-07-22T02:09:13;6.05;;;5.40;;
56653;SDS011;45096;52.302;4.634;2023-07-22T02:11:38;5.07;;;4.57;;
56653;SDS011;45096;52.302;4.634;2023-07-22T02:14:05;6.45;;;4.88;;
56653;SDS011;45096;52.302;4.634;2023-07-22T02:16:30;5.32;;;4.82;;
56653;SDS011;45096;52.302;4.634;2023-07-22T02:18:56;6.68;;;4.75;;
56653;SDS011;45096;52.302;4.634;2023-07-22T02:21:21;6.10;;;4.68;;
56653;SDS011;45096;52.302;4.634;2023-07-22T02:23:47;5.25;;;4.75;;
56653;SDS011;45096;52.302;4.634;2023-07-22T02:26:12;5.28;;;4.10;;
56653;SDS011;45096;52.302;4.634;2023-07-22T02:28:37;6.13;;;5.53;;
56653;SDS011;45096;52.302;4.634;2023-07-22T02:31:04;5.65;;;5.15;;
56653;SDS011;45096;52.302;4.634;2023-07-22T02:33:30;6.60;;;4.63;;
56653;SDS011;45096;52.302;4.634;2023-07-22T02:35:55;5.20;;;4.70;;
56653;SDS011;45096;52.302;4.634;2023-07-22T02:38:20;6.22;;;5.03;;
56653;SDS011;45096;52.302;4.634;2023-07-22T02:40:46;4.80;;;4.40;;
56653;SDS011;45096;52.302;4.634;2023-07-22T02:43:11;4.78;;;4.30;;
56653;SDS011;45096;52.302;4.634;2023-07-22T02:45:36;5.80;;;5.20;;
56653;SDS011;45096;52.302;4.634;2023-07-22T02:48:04;7.38;;;5.30;;
56653;SDS011;45096;52.302;4.634;2023-07-22T02:50:29;5.30;;;4.80;;
56653;SDS011;45096;52.302;4.634;2023-07-22T02:52:55;4.95;;;4.45;;
56653;SDS011;45096;52.302;4.634;2023-07-22T02:55:20;5.93;;;5.13;;
56653;SDS011;45096;52.302;4.634;2023-07-22T02:57:47;5.78;;;5.28;;
56653;SDS011;45096;52.302;4.634;2023-07-22T03:00:13;5.97;;;4.95;;
56653;SDS011;45096;52.302;4.634;2023-07-22T03:02:39;4.53;;;4.13;;
56653;SDS011;45096;52.302;4.634;2023-07-22T03:05:07;7.28;;;4.93;;
56653;SDS011;45096;52.302;4.634;2023-07-22T03:07:33;5.60;;;5.05;;
56653;SDS011;45096;52.302;4.634;2023-07-22T03:09:58;6.57;;;5.03;;
56653;SDS011;45096;52.302;4.634;2023-07-22T03:12:24;5.35;;;4.85;;
56653;SDS011;45096;52.302;4.634;2023-07-22T03:14:49;6.80;;;5.75;;
56653;SDS011;45096;52.302;4.634;2023-07-22T03:17:15;5.22;;;4.72;;
56653;SDS011;45096;52.302;4.634;2023-07-22T03:19:40;4.57;;;4.15;;
56653;SDS011;45096;52.302;4.634;2023-07-22T03:22:07;7.35;;;6.63;;
56653;SDS011;45096;52.302;4.634;2023-07-22T03:24:32;8.40;;;7.15;;
56653;SDS011;45096;52.302;4.634;2023-07-22T03:26:58;7.95;;;6.53;;
56653;SDS011;45096;52.302;4.634;2023-07-22T03:29:23;6.80;;;6.10;;
56653;SDS011;45096;52.302;4.634;2023-07-22T03:31:49;7.15;;;6.22;;
56653;SDS011;45096;52.302;4.634;2023-07-22T03:34:14;6.15;;;5.43;;
56653;SDS011;45096;52.302;4.634;2023-07-22T03:36:39;7.20;;;5.72;;
56653;SDS011;45096;52.302;4.634;2023-07-22T03:39:06;6.05;;;5.10;;
56653;SDS011;45096;52.302;4.634;2023-07-22T03:41:32;7.10;;;5.30;;
56653;SDS011;45096;52.302;4.634;2023-07-22T03:43:57;9.93;;;7.85;;
56653;SDS011;45096;52.302;4.634;2023-07-22T03:46:22;10.00;;;7.05;;
56653;SDS011;45096;52.302;4.634;2023-07-22T03:48:48;7.68;;;5.88;;
56653;SDS011;45096;52.302;4.634;2023-07-22T03:51:13;7.25;;;6.15;;
56653;SDS011;45096;52.302;4.634;2023-07-22T03:53:39;6.93;;;5.95;;
56653;SDS011;45096;52.302;4.634;2023-07-22T03:56:05;6.88;;;5.80;;
56653;SDS011;45096;52.302;4.634;2023-07-22T03:58:31;5.60;;;5.03;;
56653;SDS011;45096;52.302;4.634;2023-07-22T04:00:56;5.95;;;5.35;;
56653;SDS011;45096;52.302;4.634;2023-07-22T04:03:22;5.28;;;4.78;;
56653;SDS011;45096;52.302;4.634;2023-07-22T04:05:53;7.00;;;5.70;;
56653;SDS011;45096;52.302;4.634;2023-07-22T04:08:18;10.23;;;8.80;;
56653;SDS011;45096;52.302;4.634;2023-07-22T04:10:50;6.30;;;5.70;;
56653;SDS011;45096;52.302;4.634;2023-07-22T04:13:17;8.57;;;6.70;;
56653;SDS011;45096;52.302;4.634;2023-07-22T04:15:43;8.15;;;6.25;;
56653;SDS011;45096;52.302;4.634;2023-07-22T04:18:08;6.07;;;5.15;;
56653;SDS011;45096;52.302;4.634;2023-07-22T04:20:34;6.43;;;5.72;;
56653;SDS011;45096;52.302;4.634;2023-07-22T04:22:59;6.93;;;5.38;;
56653;SDS011;45096;52.302;4.634;2023-07-22T04:25:24;6.40;;;4.72;;
56653;SDS011;45096;52.302;4.634;2023-07-22T04:27:50;5.10;;;4.60;;
56653;SDS011;45096;52.302;4.634;2023-07-22T04:30:17;5.45;;;4.95;;
56653;SDS011;45096;52.302;4.634;2023-07-22T04:32:42;5.00;;;4.60;;
56653;SDS011;45096;52.302;4.634;2023-07-22T04:35:08;6.72;;;5.05;;
56653;SDS011;45096;52.302;4.634;2023-07-22T04:37:33;5.38;;;4.57;;
56653;SDS011;45096;52.302;4.634;2023-07-22T04:39:58;5.45;;;4.95;;
56653;SDS011;45096;52.302;4.634;2023-07-22T04:42:24;4.97;;;4.53;;
56653;SDS011;45096;52.302;4.634;2023-07-22T04:44:49;5.60;;;4.85;;
56653;SDS011;45096;52.302;4.634;2023-07-22T04:47:16;5.32;;;4.82;;
56653;SDS011;45096;52.302;4.634;2023-07-22T04:49:42;6.78;;;4.78;;
56653;SDS011;45096;52.302;4.634;2023-07-22T04:52:07;6.07;;;4.95;;
56653;SDS011;45096;52.302;4.634;2023-07-22T04:54:32;6.30;;;4.80;;
56653;SDS011;45096;52.302;4.634;2023-07-22T04:56:58;5.13;;;4.63;;
56653;SDS011;45096;52.302;4.634;2023-07-22T04:59:23;5.03;;;4.53;;
56653;SDS011;45096;52.302;4.634;2023-07-22T05:01:49;4.70;;;4.25;;
56653;SDS011;45096;52.302;4.634;2023-07-22T05:04:15;5.55;;;5.05;;
56653;SDS011;45096;52.302;4.634;2023-07-22T05:06:41;8.05;;;4.97;;
56653;SDS011;45096;52.302;4.634;2023-07-22T05:09:06;5.32;;;4.22;;
56653;SDS011;45096;52.302;4.634;2023-07-22T05:11:32;6.70;;;5.05;;
56653;SDS011;45096;52.302;4.634;2023-07-22T05:13:57;5.10;;;3.95;;
56653;SDS011;45096;52.302;4.634;2023-07-22T05:16:22;5.75;;;4.63;;
56653;SDS011;45096;52.302;4.634;2023-07-22T05:18:48;3.85;;;3.55;;
56653;SDS011;45096;52.302;4.634;2023-07-22T05:21:15;4.72;;;4.32;;
56653;SDS011;45096;52.302;4.634;2023-07-22T05:23:40;4.55;;;4.15;;
56653;SDS011;45096;52.302;4.634;2023-07-22T05:26:06;4.32;;;3.92;;
56653;SDS011;45096;52.302;4.634;2023-07-22T05:28:31;4.00;;;3.70;;
56653;SDS011;45096;52.302;4.634;2023-07-22T05:30:57;5.10;;;3.70;;
56653;SDS011;45096;52.302;4.634;2023-07-22T05:33:22;3.65;;;3.35;;
56653;SDS011;45096;52.302;4.634;2023-07-22T05:35:47;4.20;;;3.67;;
56653;SDS011;45096;52.302;4.634;2023-07-22T05:38:14;4.50;;;4.10;;
56653;SDS011;45096;52.302;4.634;2023-07-22T05:40:40;5.90;;;3.65;;
56653;SDS011;45096;52.302;4.634;2023-07-22T05:43:05;4.05;;;3.72;;
56653;SDS011;45096;52.302;4.634;2023-07-22T05:45:30;3.42;;;3.13;;
56653;SDS011;45096;52.302;4.634;2023-07-22T05:47:56;5.03;;;4.00;;
56653;SDS011;45096;52.302;4.634;2023-07-22T05:50:21;4.68;;;3.78;;
56653;SDS011;45096;52.302;4.634;2023-07-22T05:52:47;5.38;;;4.88;;
56653;SDS011;45096;52.302;4.634;2023-07-22T05:55:13;5.85;;;4.30;;
56653;SDS011;45096;52.302;4.634;2023-07-22T05:57:39;5.93;;;4.28;;
56653;SDS011;45096;52.302;4.634;2023-07-22T06:00:05;6.15;;;4.80;;
56653;SDS011;45096;52.302;4.634;2023-07-22T06:02:31;4.68;;;4.10;;
56653;SDS011;45096;52.302;4.634;2023-07-22T06:04:57;5.68;;;4.22;;
56653;SDS011;45096;52.302;4.634;2023-07-22T06:07:22;7.82;;;5.50;;
56653;SDS011;45096;52.302;4.634;2023-07-22T06:09:47;8.13;;;5.20;;
56653;SDS011;45096;52.302;4.634;2023-07-22T06:12:14;5.75;;;5.25;;
56653;SDS011;45096;52.302;4.634;2023-07-22T06:14:40;10.57;;;5.68;;
56653;SDS011;45096;52.302;4.634;2023-07-22T06:17:05;5.40;;;4.90;;
56653;SDS011;45096;52.302;4.634;2023-07-22T06:19:30;7.88;;;5.70;;
56653;SDS011;45096;52.302;4.634;2023-07-22T06:21:56;9.10;;;6.45;;
56653;SDS011;45096;52.302;4.634;2023-07-22T06:24:21;8.63;;;6.38;;
56653;SDS011;45096;52.302;4.634;2023-07-22T06:26:47;11.38;;;7.38;;
56653;SDS011;45096;52.302;4.634;2023-07-22T06:29:14;10.75;;;6.93;;
56653;SDS011;45096;52.302;4.634;2023-07-22T06:31:39;8.50;;;6.28;;
56653;SDS011;45096;52.302;4.634;2023-07-22T06:34:04;9.57;;;6.60;;
56653;SDS011;45096;52.302;4.634;2023-07-22T06:36:30;11.77;;;6.70;;
56653;SDS011;45096;52.302;4.634;2023-07-22T06:38:55;10.98;;;7.13;;
56653;SDS011;45096;52.302;4.634;2023-07-22T06:41:21;11.05;;;7.90;;
56653;SDS011;45096;52.302;4.634;2023-07-22T06:43:46;9.32;;;6.97;;
56653;SDS011;45096;52.302;4.634;2023-07-22T06:46:13;9.90;;;6.00;;
56653;SDS011;45096;52.302;4.634;2023-07-22T06:48:38;14.10;;;7.60;;
56653;SDS011;45096;52.302;4.634;2023-07-22T06:51:04;12.05;;;7.45;;
56653;SDS011;45096;52.302;4.634;2023-07-22T06:53:29;10.18;;;7.28;;
56653;SDS011;45096;52.302;4.634;2023-07-22T06:55:54;9.48;;;6.40;;
56653;SDS011;45096;52.302;4.634;2023-07-22T06:58:20;11.02;;;7.10;;
56653;SDS011;45096;52.302;4.634;2023-07-22T07:00:45;10.60;;;7.78;;
56653;SDS011;45096;52.302;4.634;2023-07-22T07:03:12;10.45;;;7.95;;
56653;SDS011;45096;52.302;4.634;2023-07-22T07:05:38;11.95;;;8.15;;
56653;SDS011;45096;52.302;4.634;2023-07-22T07:08:03;10.32;;;7.80;;
56653;SDS011;45096;52.302;4.634;2023-07-22T07:10:29;10.80;;;7.78;;
56653;SDS011;45096;52.302;4.634;2023-07-22T07:12:54;13.13;;;8.07;;
56653;SDS011;45096;52.302;4.634;2023-07-22T07:15:20;14.90;;;8.05;;
56653;SDS011;45096;52.302;4.634;2023-07-22T07:17:45;12.32;;;8.15;;
56653;SDS011;45096;52.302;4.634;2023-07-22T07:20:13;14.70;;;9.80;;
56653;SDS011;45096;52.302;4.634;2023-07-22T07:22:39;12.98;;;9.40;;
56653;SDS011;45096;52.302;4.634;2023-07-22T07:25:04;13.00;;;8.45;;
56653;SDS011;45096;52.302;4.634;2023-07-22T07:27:30;16.00;;;9.43;;
56653;SDS011;45096;52.302;4.634;2023-07-22T07:29:56;14.63;;;8.60;;
56653;SDS011;45096;52.302;4.634;2023-07-22T07:32:22;17.63;;;9.82;;
56653;SDS011;45096;52.302;4.634;2023-07-22T07:34:47;12.15;;;8.38;;
56653;SDS011;45096;52.302;4.634;2023-07-22T07:37:14;13.38;;;8.13;;
56653;SDS011;45096;52.302;4.634;2023-07-22T07:39:40;12.82;;;7.78;;
56653;SDS011;45096;52.302;4.634;2023-07-22T07:42:05;10.98;;;8.20;;
56653;SDS011;45096;52.302;4.634;2023-07-22T07:44:31;15.77;;;8.43;;
56653;SDS011;45096;52.302;4.634;2023-07-22T07:46:56;9.75;;;7.70;;
56653;SDS011;45096;52.302;4.634;2023-07-22T07:49:22;10.07;;;8.25;;
56653;SDS011;45096;52.302;4.634;2023-07-22T07:51:47;15.00;;;8.82;;
56653;SDS011;45096;52.302;4.634;2023-07-22T07:54:14;10.07;;;8.05;;
56653;SDS011;45096;52.302;4.634;2023-07-22T07:56:39;13.27;;;8.15;;
56653;SDS011;45096;52.302;4.634;2023-07-22T07:59:05;14.15;;;7.50;;
56653;SDS011;45096;52.302;4.634;2023-07-22T08:01:30;11.77;;;8.32;;
56653;SDS011;45096;52.302;4.634;2023-07-22T08:03:56;12.68;;;8.20;;
56653;SDS011;45096;52.302;4.634;2023-07-22T08:06:21;10.02;;;8.00;;
56653;SDS011;45096;52.302;4.634;2023-07-22T08:08:47;10.43;;;7.75;;
56653;SDS011;45096;52.302;4.634;2023-07-22T08:11:14;14.48;;;7.90;;
56653;SDS011;45096;52.302;4.634;2023-07-22T08:13:40;13.43;;;7.55;;
56653;SDS011;45096;52.302;4.634;2023-07-22T08:16:07;13.70;;;7.97;;
56653;SDS011;45096;52.302;4.634;2023-07-22T08:18:33;11.40;;;7.72;;
56653;SDS011;45096;52.302;4.634;2023-07-22T08:21:00;14.35;;;7.45;;
56653;SDS011;45096;52.302;4.634;2023-07-22T08:23:25;10.57;;;7.50;;
56653;SDS011;45096;52.302;4.634;2023-07-22T08:25:51;11.75;;;7.72;;
56653;SDS011;45096;52.302;4.634;2023-07-22T08:28:18;11.23;;;7.65;;
56653;SDS011;45096;52.302;4.634;2023-07-22T08:30:43;11.68;;;6.72;;
56653;SDS011;45096;52.302;4.634;2023-07-22T08:33:09;9.60;;;6.57;;
56653;SDS011;45096;52.302;4.634;2023-07-22T08:35:34;6.80;;;5.93;;
56653;SDS011;45096;52.302;4.634;2023-07-22T08:38:00;8.32;;;5.07;;
56653;SDS011;45096;52.302;4.634;2023-07-22T08:40:25;8.68;;;3.90;;
56653;SDS011;45096;52.302;4.634;2023-07-22T08:42:51;3.90;;;3.28;;
56653;SDS011;45096;52.302;4.634;2023-07-22T08:45:18;8.00;;;2.90;;
56653;SDS011;45096;52.302;4.634;2023-07-22T08:47:45;3.15;;;2.60;;
56653;SDS011;45096;52.302;4.634;2023-07-22T08:50:12;5.45;;;3.03;;
56653;SDS011;45096;52.302;4.634;2023-07-22T08:52:40;5.45;;;3.47;;
56653;SDS011;45096;52.302;4.634;2023-07-22T08:55:06;8.25;;;2.55;;
56653;SDS011;45096;52.302;4.634;2023-07-22T08:57:32;2.38;;;2.22;;
56653;SDS011;45096;52.302;4.634;2023-07-22T08:59:58;3.08;;;2.38;;
56653;SDS011;45096;52.302;4.634;2023-07-22T09:02:25;3.85;;;2.95;;
56653;SDS011;45096;52.302;4.634;2023-07-22T09:04:50;3.88;;;2.20;;
56653;SDS011;45096;52.302;4.634;2023-07-22T09:07:16;2.58;;;2.38;;
56653;SDS011;45096;52.302;4.634;2023-07-22T09:09:42;2.50;;;2.30;;
56653;SDS011;45096;52.302;4.634;2023-07-22T09:12:08;2.45;;;2.25;;
56653;SDS011;45096;52.302;4.634;2023-07-22T09:14:33;2.28;;;1.95;;
56653;SDS011;45096;52.302;4.634;2023-07-22T09:16:59;2.53;;;2.33;;
56653;SDS011;45096;52.302;4.634;2023-07-22T09:19:26;2.75;;;2.55;;
56653;SDS011;45096;52.302;4.634;2023-07-22T09:21:51;3.75;;;2.58;;
56653;SDS011;45096;52.302;4.634;2023-07-22T09:24:20;2.22;;;1.98;;
56653;SDS011;45096;52.302;4.634;2023-07-22T09:26:46;3.10;;;2.10;;
56653;SDS011;45096;52.302;4.634;2023-07-22T09:29:12;2.67;;;2.30;;
56653;SDS011;45096;52.302;4.634;2023-07-22T09:31:47;2.83;;;2.00;;
56653;SDS011;45096;52.302;4.634;2023-07-22T09:34:13;3.10;;;2.20;;
56653;SDS011;45096;52.302;4.634;2023-07-22T09:36:50;2.75;;;1.70;;
56653;SDS011;45096;52.302;4.634;2023-07-22T09:39:15;5.10;;;2.30;;
56653;SDS011;45096;52.302;4.634;2023-07-22T09:41:41;4.70;;;1.85;;
56653;SDS011;45096;52.302;4.634;2023-07-22T09:44:08;2.25;;;2.15;;
56653;SDS011;45096;52.302;4.634;2023-07-22T09:46:34;2.10;;;1.90;;
56653;SDS011;45096;52.302;4.634;2023-07-22T09:49:02;4.15;;;1.88;;
56653;SDS011;45096;52.302;4.634;2023-07-22T09:51:31;1.90;;;1.80;;
56653;SDS011;45096;52.302;4.634;2023-07-22T09:54:00;2.42;;;2.10;;
56653;SDS011;45096;52.302;4.634;2023-07-22T09:56:27;1.77;;;1.67;;
56653;SDS011;45096;52.302;4.634;2023-07-22T09:58:52;2.17;;;1.98;;
56653;SDS011;45096;52.302;4.634;2023-07-22T10:01:19;2.63;;;1.92;;
56653;SDS011;45096;52.302;4.634;2023-07-22T10:03:45;3.78;;;1.90;;
56653;SDS011;45096;52.302;4.634;2023-07-22T10:06:11;2.80;;;2.13;;
56653;SDS011;45096;52.302;4.634;2023-07-22T10:08:36;2.08;;;1.73;;
56653;SDS011;45096;52.302;4.634;2023-07-22T10:11:03;3.63;;;2.00;;
56653;SDS011;45096;52.302;4.634;2023-07-22T10:13:30;2.08;;;1.95;;
56653;SDS011;45096;52.302;4.634;2023-07-22T10:15:56;2.83;;;1.38;;
56653;SDS011;45096;52.302;4.634;2023-07-22T10:18:21;1.63;;;1.52;;
56653;SDS011;45096;52.302;4.634;2023-07-22T10:20:48;5.07;;;1.95;;
56653;SDS011;45096;52.302;4.634;2023-07-22T10:23:13;2.22;;;2.00;;
56653;SDS011;45096;52.302;4.634;2023-07-22T10:25:39;2.75;;;2.00;;
56653;SDS011;45096;52.302;4.634;2023-07-22T10:28:06;1.60;;;1.50;;
56653;SDS011;45096;52.302;4.634;2023-07-22T10:30:31;2.08;;;1.98;;
56653;SDS011;45096;52.302;4.634;2023-07-22T10:32:57;3.05;;;1.75;;
56653;SDS011;45096;52.302;4.634;2023-07-22T10:35:33;2.60;;;1.30;;
56653;SDS011;45096;52.302;4.634;2023-07-22T10:38:06;2.13;;;1.90;;
56653;SDS011;45096;52.302;4.634;2023-07-22T10:40:32;2.10;;;1.92;;
56653;SDS011;45096;52.302;4.634;2023-07-22T10:42:58;2.00;;;1.67;;
56653;SDS011;45096;52.302;4.634;2023-07-22T10:45:27;2.90;;;1.55;;
56653;SDS011;45096;52.302;4.634;2023-07-22T10:48:00;1.67;;;1.58;;
56653;SDS011;45096;52.302;4.634;2023-07-22T10:50:37;2.47;;;2.05;;
56653;SDS011;45096;52.302;4.634;2023-07-22T10:53:03;3.33;;;1.85;;
56653;SDS011;45096;52.302;4.634;2023-07-22T10:55:29;2.97;;;1.67;;
56653;SDS011;45096;52.302;4.634;2023-07-22T10:57:54;1.58;;;1.38;;
56653;SDS011;45096;52.302;4.634;2023-07-22T11:00:20;1.63;;;1.52;;
56653;SDS011;45096;52.302;4.634;2023-07-22T11:02:48;1.80;;;1.70;;
56653;SDS011;45096;52.302;4.634;2023-07-22T11:05:46;2.17;;;1.60;;
56653;SDS011;45096;52.302;4.634;2023-07-22T11:08:12;2.25;;;1.67;;
56653;SDS011;45096;52.302;4.634;2023-07-22T11:10:38;2.20;;;1.90;;
56653;SDS011;45096;52.302;4.634;2023-07-22T11:13:17;2.67;;;1.90;;
56653;SDS011;45096;52.302;4.634;2023-07-22T11:15:46;3.65;;;1.83;;
56653;SDS011;45096;52.302;4.634;2023-07-22T11:18:13;3.15;;;1.90;;
56653;SDS011;45096;52.302;4.634;2023-07-22T11:20:39;4.70;;;1.90;;
56653;SDS011;45096;52.302;4.634;2023-07-22T11:23:04;2.22;;;1.65;;
56653;SDS011;45096;52.302;4.634;2023-07-22T11:25:30;3.60;;;1.45;;
56653;SDS011;45096;52.302;4.634;2023-07-22T11:27:58;3.53;;;1.52;;
56653;SDS011;45096;52.302;4.634;2023-07-22T11:30:24;3.50;;;1.45;;
56653;SDS011;45096;52.302;4.634;2023-07-22T11:32:49;2.55;;;2.35;;
56653;SDS011;45096;52.302;4.634;2023-07-22T11:35:16;2.72;;;1.27;;
56653;SDS011;45096;52.302;4.634;2023-07-22T11:37:42;4.35;;;1.70;;
56653;SDS011;45096;52.302;4.634;2023-07-22T11:40:11;3.58;;;1.40;;
56653;SDS011;45096;52.302;4.634;2023-07-22T11:42:37;3.05;;;1.80;;
56653;SDS011;45096;52.302;4.634;2023-07-22T11:45:03;2.70;;;2.08;;
56653;SDS011;45096;52.302;4.634;2023-07-22T11:47:30;2.38;;;1.70;;
56653;SDS011;45096;52.302;4.634;2023-07-22T11:49:55;1.63;;;1.45;;
56653;SDS011;45096;52.302;4.634;2023-07-22T11:52:22;2.88;;;1.63;;
56653;SDS011;45096;52.302;4.634;2023-07-22T11:54:48;2.78;;;1.58;;
56653;SDS011;45096;52.302;4.634;2023-07-22T11:57:13;4.00;;;1.63;;
56653;SDS011;45096;52.302;4.634;2023-07-22T11:59:40;2.92;;;1.60;;
56653;SDS011;45096;52.302;4.634;2023-07-22T12:02:11;3.20;;;1.95;;
56653;SDS011;45096;52.302;4.634;2023-07-22T12:04:37;2.15;;;1.70;;
56653;SDS011;45096;52.302;4.634;2023-07-22T12:07:03;2.90;;;2.00;;
56653;SDS011;45096;52.302;4.634;2023-07-22T12:09:30;4.28;;;1.70;;
56653;SDS011;45096;52.302;4.634;2023-07-22T12:11:56;2.25;;;1.60;;
56653;SDS011;45096;52.302;4.634;2023-07-22T12:14:22;4.88;;;2.22;;
56653;SDS011;45096;52.302;4.634;2023-07-22T12:16:48;2.10;;;1.92;;
56653;SDS011;45096;52.302;4.634;2023-07-22T12:19:18;1.50;;;1.40;;
56653;SDS011;45096;52.302;4.634;2023-07-22T12:21:43;2.15;;;1.95;;
56653;SDS011;45096;52.302;4.634;2023-07-22T12:24:13;3.92;;;1.60;;
56653;SDS011;45096;52.302;4.634;2023-07-22T12:26:40;3.40;;;1.75;;
56653;SDS011;45096;52.302;4.634;2023-07-22T12:29:05;2.55;;;1.58;;
56653;SDS011;45096;52.302;4.634;2023-07-22T12:31:31;1.90;;;1.80;;
56653;SDS011;45096;52.302;4.634;2023-07-22T12:33:56;3.70;;;1.92;;
56653;SDS011;45096;52.302;4.634;2023-07-22T12:36:21;4.22;;;2.22;;
56653;SDS011;45096;52.302;4.634;2023-07-22T12:38:47;2.80;;;1.80;;
56653;SDS011;45096;52.302;4.634;2023-07-22T12:41:12;1.88;;;1.70;;
56653;SDS011;45096;52.302;4.634;2023-07-22T12:43:39;2.47;;;2.13;;
56653;SDS011;45096;52.302;4.634;2023-07-22T12:46:04;3.50;;;2.08;;
56653;SDS011;45096;52.302;4.634;2023-07-22T12:48:30;2.63;;;2.08;;
56653;SDS011;45096;52.302;4.634;2023-07-22T12:50:55;3.58;;;2.42;;
56653;SDS011;45096;52.302;4.634;2023-07-22T12:53:21;3.45;;;2.00;;
56653;SDS011;45096;52.302;4.634;2023-07-22T12:55:46;3.33;;;2.08;;
56653;SDS011;45096;52.302;4.634;2023-07-22T12:58:12;2.67;;;2.10;;
56653;SDS011;45096;52.302;4.634;2023-07-22T13:00:39;8.65;;;2.38;;
56653;SDS011;45096;52.302;4.634;2023-07-22T13:03:05;5.00;;;3.22;;
56653;SDS011;45096;52.302;4.634;2023-07-22T13:05:30;3.70;;;2.45;;
56653;SDS011;45096;52.302;4.634;2023-07-22T13:07:56;2.17;;;1.98;;
56653;SDS011;45096;52.302;4.634;2023-07-22T13:10:21;3.55;;;2.15;;
56653;SDS011;45096;52.302;4.634;2023-07-22T13:12:47;3.78;;;2.35;;
56653;SDS011;45096;52.302;4.634;2023-07-22T13:15:12;3.10;;;2.20;;
56653;SDS011;45096;52.302;4.634;2023-07-22T13:17:39;3.15;;;2.40;;
56653;SDS011;45096;52.302;4.634;2023-07-22T13:20:05;2.80;;;2.13;;
56653;SDS011;45096;52.302;4.634;2023-07-22T13:22:31;3.22;;;2.30;;
56653;SDS011;45096;52.302;4.634;2023-07-22T13:24:56;3.63;;;1.95;;
56653;SDS011;45096;52.302;4.634;2023-07-22T13:27:22;3.08;;;2.03;;
56653;SDS011;45096;52.302;4.634;2023-07-22T13:29:47;2.30;;;2.10;;
56653;SDS011;45096;52.302;4.634;2023-07-22T13:32:13;2.20;;;2.00;;
56653;SDS011;45096;52.302;4.634;2023-07-22T13:34:39;5.22;;;2.35;;
56653;SDS011;45096;52.302;4.634;2023-07-22T13:37:05;3.17;;;2.15;;
56653;SDS011;45096;52.302;4.634;2023-07-22T13:39:32;2.17;;;1.98;;
56653;SDS011;45096;52.302;4.634;2023-07-22T13:41:58;3.22;;;2.35;;
56653;SDS011;45096;52.302;4.634;2023-07-22T13:44:23;2.92;;;2.33;;
56653;SDS011;45096;52.302;4.634;2023-07-22T13:46:48;3.15;;;2.03;;
56653;SDS011;45096;52.302;4.634;2023-07-22T13:49:14;4.07;;;2.10;;
56653;SDS011;45096;52.302;4.634;2023-07-22T13:51:41;3.22;;;2.20;;
56653;SDS011;45096;52.302;4.634;2023-07-22T13:54:06;2.53;;;2.25;;
56653;SDS011;45096;52.302;4.634;2023-07-22T13:56:31;3.33;;;2.40;;
56653;SDS011;45096;52.302;4.634;2023-07-22T13:58:57;3.17;;;2.10;;
56653;SDS011;45096;52.302;4.634;2023-07-22T14:01:22;4.35;;;2.35;;
56653;SDS011;45096;52.302;4.634;2023-07-22T14:03:48;60.30;;;5.30;;
56653;SDS011;45096;52.302;4.634;2023-07-22T14:06:13;26.73;;;3.95;;
56653;SDS011;45096;52.302;4.634;2023-07-22T14:08:40;5.97;;;2.42;;
56653;SDS011;45096;52.302;4.634;2023-07-22T14:11:05;7.55;;;2.10;;
56653;SDS011;45096;52.302;4.634;2023-07-22T14:13:31;8.32;;;2.38;;
56653;SDS011;45096;52.302;4.634;2023-07-22T14:15:56;3.63;;;2.13;;
56653;SDS011;45096;52.302;4.634;2023-07-22T14:18:21;9.07;;;2.17;;
56653;SDS011;45096;52.302;4.634;2023-07-22T14:20:47;2.85;;;2.00;;
56653;SDS011;45096;52.302;4.634;2023-07-22T14:23:12;2.45;;;2.05;;
56653;SDS011;45096;52.302;4.634;2023-07-22T14:25:39;1.73;;;1.63;;
56653;SDS011;45096;52.302;4.634;2023-07-22T14:28:05;4.38;;;1.85;;
56653;SDS011;45096;52.302;4.634;2023-07-22T14:30:30;2.53;;;1.85;;
56653;SDS011;45096;52.302;4.634;2023-07-22T14:32:55;2.88;;;2.10;;
56653;SDS011;45096;52.302;4.634;2023-07-22T14:35:21;5.13;;;2.00;;
56653;SDS011;45096;52.302;4.634;2023-07-22T14:37:47;2.85;;;1.98;;